Terminal Aerodrome Forecast
Issued by NWS

Home | Current Version | Previous Version | Text Only | Print | Product List | Glossary On
Versions: 1 2 3 4 5 6 7 8 9 10 11 12 13 14 15 16 17
000
FTUS43 KGRB 202337
TAFCWA
TAF
KCWA 202337Z 2100/2124 21010KT P6SM BKN200 WS014/25050KT
     FM210400 24011KT P6SM BKN200 WS014/28040KT
     FM210900 28014G23KT P6SM SCT200
     FM211300 30017G28KT P6SM BKN040
     FM212000 31014G24KT P6SM SCT040
     FM212300 31010KT P6SM SCT035
      AMD LTD TO CLD VIS AND WIND 2103/2111=

USA.gov is the U.S. government's official web portal to all federal, state and local government web resources and services.